Bruneau, Idaho
Current Conditions -  °F | °C
As of 10:58 AM on Friday 24 Oct 2014 (Local Time) from KMUO Reporting Station
Overcast Overcast  
Wind Chill: 55°   Ceiling: 11000
Heat Index: 55°   Visibility: 10mi
Dew Point: 55°   Wind: 0mph
Humidity: 98%   Direction: NA
Pressure: 30.11"   Gusts: NA
Location:  42.88°N, 115.8°W
Report Text: KMUO 241658Z AUTO 00000KT 10SM OVC110 13/13 A3011 RMK AO2 SLP191 T01290126
Loading
Personal Weather Stations






























Interactive Weather Map
Tropical Storm Tracking
New forecast layout! Learn more

10-Day Weather Forecast

Advertisements
Track Severe Weather on mobile